sensor_id;sensor_type;location;lat;lon;timestamp;P1;durP1;ratioP1;P2;durP2;ratioP2
55720;SDS011;41626;53.098;6.168;2022-07-23T00:00:52;8.38;;;4.88;;
55720;SDS011;41626;53.098;6.168;2022-07-23T00:03:17;5.68;;;3.85;;
55720;SDS011;41626;53.098;6.168;2022-07-23T00:05:43;4.82;;;4.35;;
55720;SDS011;41626;53.098;6.168;2022-07-23T00:08:09;6.55;;;3.88;;
55720;SDS011;41626;53.098;6.168;2022-07-23T00:10:34;8.15;;;4.43;;
55720;SDS011;41626;53.098;6.168;2022-07-23T00:13:00;6.32;;;4.78;;
55720;SDS011;41626;53.098;6.168;2022-07-23T00:15:27;5.18;;;4.05;;
55720;SDS011;41626;53.098;6.168;2022-07-23T00:17:53;7.15;;;3.92;;
55720;SDS011;41626;53.098;6.168;2022-07-23T00:20:19;6.13;;;4.60;;
55720;SDS011;41626;53.098;6.168;2022-07-23T00:22:45;7.82;;;4.10;;
55720;SDS011;41626;53.098;6.168;2022-07-23T00:25:15;6.93;;;4.57;;
55720;SDS011;41626;53.098;6.168;2022-07-23T00:27:41;8.77;;;4.05;;
55720;SDS011;41626;53.098;6.168;2022-07-23T00:30:07;14.02;;;4.85;;
55720;SDS011;41626;53.098;6.168;2022-07-23T00:32:47;7.75;;;4.20;;
55720;SDS011;41626;53.098;6.168;2022-07-23T00:35:14;5.82;;;4.28;;
55720;SDS011;41626;53.098;6.168;2022-07-23T00:37:40;6.50;;;4.38;;
55720;SDS011;41626;53.098;6.168;2022-07-23T00:40:06;7.65;;;3.83;;
55720;SDS011;41626;53.098;6.168;2022-07-23T00:42:33;6.82;;;4.65;;
55720;SDS011;41626;53.098;6.168;2022-07-23T00:44:58;7.53;;;4.25;;
55720;SDS011;41626;53.098;6.168;2022-07-23T00:47:24;6.90;;;4.10;;
55720;SDS011;41626;53.098;6.168;2022-07-23T00:49:51;10.88;;;4.15;;
55720;SDS011;41626;53.098;6.168;2022-07-23T00:52:16;5.40;;;4.30;;
55720;SDS011;41626;53.098;6.168;2022-07-23T00:54:42;4.13;;;3.65;;
55720;SDS011;41626;53.098;6.168;2022-07-23T00:57:08;4.15;;;3.45;;
55720;SDS011;41626;53.098;6.168;2022-07-23T00:59:34;8.07;;;4.22;;
55720;SDS011;41626;53.098;6.168;2022-07-23T01:02:00;5.25;;;3.80;;
55720;SDS011;41626;53.098;6.168;2022-07-23T01:04:25;5.05;;;4.25;;
55720;SDS011;41626;53.098;6.168;2022-07-23T01:06:51;6.57;;;3.22;;
55720;SDS011;41626;53.098;6.168;2022-07-23T01:09:17;3.90;;;3.45;;
55720;SDS011;41626;53.098;6.168;2022-07-23T01:11:43;4.65;;;3.97;;
55720;SDS011;41626;53.098;6.168;2022-07-23T01:16:34;4.18;;;3.70;;
55720;SDS011;41626;53.098;6.168;2022-07-23T01:19:00;5.07;;;4.57;;
55720;SDS011;41626;53.098;6.168;2022-07-23T01:21:26;6.47;;;5.38;;
55720;SDS011;41626;53.098;6.168;2022-07-23T01:23:52;7.32;;;5.05;;
55720;SDS011;41626;53.098;6.168;2022-07-23T01:26:17;6.75;;;6.05;;
55720;SDS011;41626;53.098;6.168;2022-07-23T01:28:43;8.35;;;6.32;;
55720;SDS011;41626;53.098;6.168;2022-07-23T01:31:09;8.82;;;5.28;;
55720;SDS011;41626;53.098;6.168;2022-07-23T01:33:34;9.25;;;5.78;;
55720;SDS011;41626;53.098;6.168;2022-07-23T01:36:00;8.20;;;5.63;;
55720;SDS011;41626;53.098;6.168;2022-07-23T01:38:26;7.88;;;4.93;;
55720;SDS011;41626;53.098;6.168;2022-07-23T01:40:51;6.35;;;4.72;;
55720;SDS011;41626;53.098;6.168;2022-07-23T01:43:17;7.90;;;5.30;;
55720;SDS011;41626;53.098;6.168;2022-07-23T01:45:42;8.05;;;5.50;;
55720;SDS011;41626;53.098;6.168;2022-07-23T01:48:09;6.93;;;5.18;;
55720;SDS011;41626;53.098;6.168;2022-07-23T01:50:35;8.80;;;5.45;;
55720;SDS011;41626;53.098;6.168;2022-07-23T01:53:00;6.03;;;4.80;;
55720;SDS011;41626;53.098;6.168;2022-07-23T01:55:26;6.05;;;4.85;;
55720;SDS011;41626;53.098;6.168;2022-07-23T01:57:52;7.70;;;5.18;;
55720;SDS011;41626;53.098;6.168;2022-07-23T02:00:17;6.10;;;5.28;;
55720;SDS011;41626;53.098;6.168;2022-07-23T02:02:43;9.43;;;6.07;;
55720;SDS011;41626;53.098;6.168;2022-07-23T02:05:09;7.57;;;5.60;;
55720;SDS011;41626;53.098;6.168;2022-07-23T02:07:35;9.27;;;5.53;;
55720;SDS011;41626;53.098;6.168;2022-07-23T02:10:00;6.53;;;5.22;;
55720;SDS011;41626;53.098;6.168;2022-07-23T02:12:26;5.45;;;4.53;;
55720;SDS011;41626;53.098;6.168;2022-07-23T02:14:52;12.35;;;6.63;;
55720;SDS011;41626;53.098;6.168;2022-07-23T02:17:17;7.22;;;5.32;;
55720;SDS011;41626;53.098;6.168;2022-07-23T02:19:43;7.72;;;4.75;;
55720;SDS011;41626;53.098;6.168;2022-07-23T02:22:08;10.93;;;5.97;;
55720;SDS011;41626;53.098;6.168;2022-07-23T02:24:34;6.70;;;5.30;;
55720;SDS011;41626;53.098;6.168;2022-07-23T02:27:00;8.02;;;5.15;;
55720;SDS011;41626;53.098;6.168;2022-07-23T02:29:25;4.75;;;4.20;;
55720;SDS011;41626;53.098;6.168;2022-07-23T02:31:51;10.95;;;6.65;;
55720;SDS011;41626;53.098;6.168;2022-07-23T02:34:17;6.30;;;4.30;;
55720;SDS011;41626;53.098;6.168;2022-07-23T02:36:42;6.00;;;4.15;;
55720;SDS011;41626;53.098;6.168;2022-07-23T02:39:08;7.90;;;4.28;;
55720;SDS011;41626;53.098;6.168;2022-07-23T02:41:33;7.03;;;4.65;;
55720;SDS011;41626;53.098;6.168;2022-07-23T02:43:59;6.28;;;4.28;;
55720;SDS011;41626;53.098;6.168;2022-07-23T02:46:25;4.60;;;4.20;;
55720;SDS011;41626;53.098;6.168;2022-07-23T02:48:50;6.60;;;4.53;;
55720;SDS011;41626;53.098;6.168;2022-07-23T02:51:16;6.05;;;3.83;;
55720;SDS011;41626;53.098;6.168;2022-07-23T02:53:42;4.18;;;3.22;;
55720;SDS011;41626;53.098;6.168;2022-07-23T02:56:07;4.50;;;3.60;;
55720;SDS011;41626;53.098;6.168;2022-07-23T02:58:33;4.40;;;3.20;;
55720;SDS011;41626;53.098;6.168;2022-07-23T03:00:59;9.07;;;3.63;;
55720;SDS011;41626;53.098;6.168;2022-07-23T03:03:24;8.10;;;3.67;;
55720;SDS011;41626;53.098;6.168;2022-07-23T03:05:50;3.20;;;2.83;;
55720;SDS011;41626;53.098;6.168;2022-07-23T03:08:16;2.78;;;2.50;;
55720;SDS011;41626;53.098;6.168;2022-07-23T03:10:41;6.60;;;3.85;;
55720;SDS011;41626;53.098;6.168;2022-07-23T03:13:07;6.57;;;2.92;;
55720;SDS011;41626;53.098;6.168;2022-07-23T03:15:32;4.63;;;3.88;;
55720;SDS011;41626;53.098;6.168;2022-07-23T03:17:58;4.60;;;3.63;;
55720;SDS011;41626;53.098;6.168;2022-07-23T03:20:24;3.92;;;3.17;;
55720;SDS011;41626;53.098;6.168;2022-07-23T03:22:49;7.88;;;5.00;;
55720;SDS011;41626;53.098;6.168;2022-07-23T03:25:15;4.53;;;3.42;;
55720;SDS011;41626;53.098;6.168;2022-07-23T03:27:40;6.53;;;4.10;;
55720;SDS011;41626;53.098;6.168;2022-07-23T03:30:06;5.70;;;3.83;;
55720;SDS011;41626;53.098;6.168;2022-07-23T03:32:32;4.50;;;4.10;;
55720;SDS011;41626;53.098;6.168;2022-07-23T03:34:58;5.32;;;3.95;;
55720;SDS011;41626;53.098;6.168;2022-07-23T03:37:25;5.05;;;3.60;;
55720;SDS011;41626;53.098;6.168;2022-07-23T03:39:51;5.53;;;3.22;;
55720;SDS011;41626;53.098;6.168;2022-07-23T03:42:16;4.88;;;4.10;;
55720;SDS011;41626;53.098;6.168;2022-07-23T03:44:42;4.55;;;3.22;;
55720;SDS011;41626;53.098;6.168;2022-07-23T03:47:08;6.60;;;3.65;;
55720;SDS011;41626;53.098;6.168;2022-07-23T03:49:33;6.32;;;3.90;;
55720;SDS011;41626;53.098;6.168;2022-07-23T03:51:59;5.38;;;4.55;;
55720;SDS011;41626;53.098;6.168;2022-07-23T03:54:25;5.53;;;4.28;;
55720;SDS011;41626;53.098;6.168;2022-07-23T03:56:51;5.53;;;3.95;;
55720;SDS011;41626;53.098;6.168;2022-07-23T03:59:16;4.18;;;3.75;;
55720;SDS011;41626;53.098;6.168;2022-07-23T04:01:42;6.07;;;4.50;;
55720;SDS011;41626;53.098;6.168;2022-07-23T04:04:07;4.50;;;3.45;;
55720;SDS011;41626;53.098;6.168;2022-07-23T04:06:33;9.07;;;4.82;;
55720;SDS011;41626;53.098;6.168;2022-07-23T04:09:00;5.28;;;3.92;;
55720;SDS011;41626;53.098;6.168;2022-07-23T04:11:25;9.02;;;3.85;;
55720;SDS011;41626;53.098;6.168;2022-07-23T04:13:51;6.40;;;3.38;;
55720;SDS011;41626;53.098;6.168;2022-07-23T04:16:17;5.25;;;3.70;;
55720;SDS011;41626;53.098;6.168;2022-07-23T04:18:42;3.92;;;3.58;;
55720;SDS011;41626;53.098;6.168;2022-07-23T04:21:08;6.13;;;3.80;;
55720;SDS011;41626;53.098;6.168;2022-07-23T04:23:34;3.90;;;3.20;;
55720;SDS011;41626;53.098;6.168;2022-07-23T04:25:59;9.68;;;5.95;;
55720;SDS011;41626;53.098;6.168;2022-07-23T04:28:25;4.80;;;3.40;;
55720;SDS011;41626;53.098;6.168;2022-07-23T04:30:51;4.55;;;3.72;;
55720;SDS011;41626;53.098;6.168;2022-07-23T04:33:17;5.38;;;3.47;;
55720;SDS011;41626;53.098;6.168;2022-07-23T04:35:42;4.95;;;2.85;;
55720;SDS011;41626;53.098;6.168;2022-07-23T04:38:08;5.57;;;3.95;;
55720;SDS011;41626;53.098;6.168;2022-07-23T04:40:34;6.18;;;4.13;;
55720;SDS011;41626;53.098;6.168;2022-07-23T04:42:59;13.63;;;4.93;;
55720;SDS011;41626;53.098;6.168;2022-07-23T04:45:25;5.30;;;3.80;;
55720;SDS011;41626;53.098;6.168;2022-07-23T04:47:51;7.53;;;4.60;;
55720;SDS011;41626;53.098;6.168;2022-07-23T04:50:17;5.93;;;3.70;;
55720;SDS011;41626;53.098;6.168;2022-07-23T04:52:46;5.38;;;4.50;;
55720;SDS011;41626;53.098;6.168;2022-07-23T04:55:13;9.48;;;5.35;;
55720;SDS011;41626;53.098;6.168;2022-07-23T04:57:39;6.95;;;5.03;;
55720;SDS011;41626;53.098;6.168;2022-07-23T05:00:05;7.53;;;5.15;;
55720;SDS011;41626;53.098;6.168;2022-07-23T05:02:31;7.75;;;5.03;;
55720;SDS011;41626;53.098;6.168;2022-07-23T05:04:57;5.00;;;4.50;;
55720;SDS011;41626;53.098;6.168;2022-07-23T05:07:22;10.63;;;5.65;;
55720;SDS011;41626;53.098;6.168;2022-07-23T05:09:49;6.85;;;5.20;;
55720;SDS011;41626;53.098;6.168;2022-07-23T05:12:14;8.20;;;5.18;;
55720;SDS011;41626;53.098;6.168;2022-07-23T05:14:40;6.90;;;4.85;;
55720;SDS011;41626;53.098;6.168;2022-07-23T05:17:06;6.45;;;5.43;;
55720;SDS011;41626;53.098;6.168;2022-07-23T05:19:33;6.03;;;5.05;;
55720;SDS011;41626;53.098;6.168;2022-07-23T05:22:00;8.55;;;4.38;;
55720;SDS011;41626;53.098;6.168;2022-07-23T05:24:26;12.70;;;6.60;;
55720;SDS011;41626;53.098;6.168;2022-07-23T05:26:52;9.75;;;5.18;;
55720;SDS011;41626;53.098;6.168;2022-07-23T05:29:17;7.20;;;4.82;;
55720;SDS011;41626;53.098;6.168;2022-07-23T05:31:43;12.65;;;5.15;;
55720;SDS011;41626;53.098;6.168;2022-07-23T05:34:09;7.28;;;5.35;;
55720;SDS011;41626;53.098;6.168;2022-07-23T05:36:34;5.97;;;4.93;;
55720;SDS011;41626;53.098;6.168;2022-07-23T05:39:00;10.20;;;4.65;;
55720;SDS011;41626;53.098;6.168;2022-07-23T05:41:26;6.35;;;4.80;;
55720;SDS011;41626;53.098;6.168;2022-07-23T05:43:51;7.97;;;4.35;;
55720;SDS011;41626;53.098;6.168;2022-07-23T05:46:17;6.97;;;4.38;;
55720;SDS011;41626;53.098;6.168;2022-07-23T05:48:43;4.93;;;3.40;;
55720;SDS011;41626;53.098;6.168;2022-07-23T05:51:11;6.70;;;4.82;;
55720;SDS011;41626;53.098;6.168;2022-07-23T05:53:36;5.57;;;3.63;;
55720;SDS011;41626;53.098;6.168;2022-07-23T05:56:03;6.13;;;3.72;;
55720;SDS011;41626;53.098;6.168;2022-07-23T05:58:29;4.95;;;4.45;;
55720;SDS011;41626;53.098;6.168;2022-07-23T06:00:54;7.60;;;3.83;;
55720;SDS011;41626;53.098;6.168;2022-07-23T06:03:20;5.95;;;3.05;;
55720;SDS011;41626;53.098;6.168;2022-07-23T06:05:46;5.82;;;2.22;;
55720;SDS011;41626;53.098;6.168;2022-07-23T06:08:11;5.50;;;2.65;;
55720;SDS011;41626;53.098;6.168;2022-07-23T06:10:37;2.03;;;1.83;;
55720;SDS011;41626;53.098;6.168;2022-07-23T06:13:02;2.47;;;1.67;;
55720;SDS011;41626;53.098;6.168;2022-07-23T06:15:28;4.35;;;2.08;;
55720;SDS011;41626;53.098;6.168;2022-07-23T06:17:55;0.98;;;0.93;;
55720;SDS011;41626;53.098;6.168;2022-07-23T06:20:21;6.43;;;1.00;;
55720;SDS011;41626;53.098;6.168;2022-07-23T06:22:46;7.43;;;1.65;;
55720;SDS011;41626;53.098;6.168;2022-07-23T06:25:12;3.15;;;0.98;;
55720;SDS011;41626;53.098;6.168;2022-07-23T06:27:37;7.10;;;1.65;;
55720;SDS011;41626;53.098;6.168;2022-07-23T06:30:03;2.22;;;0.80;;
55720;SDS011;41626;53.098;6.168;2022-07-23T06:32:30;3.38;;;1.02;;
55720;SDS011;41626;53.098;6.168;2022-07-23T06:34:56;3.97;;;0.88;;
55720;SDS011;41626;53.098;6.168;2022-07-23T06:37:21;3.13;;;0.55;;
55720;SDS011;41626;53.098;6.168;2022-07-23T06:39:47;2.38;;;1.52;;
55720;SDS011;41626;53.098;6.168;2022-07-23T06:42:13;1.85;;;0.95;;
55720;SDS011;41626;53.098;6.168;2022-07-23T06:44:39;0.90;;;0.65;;
55720;SDS011;41626;53.098;6.168;2022-07-23T06:47:05;4.32;;;0.80;;
55720;SDS011;41626;53.098;6.168;2022-07-23T06:49:31;1.42;;;0.80;;
55720;SDS011;41626;53.098;6.168;2022-07-23T06:51:56;1.80;;;0.63;;
55720;SDS011;41626;53.098;6.168;2022-07-23T06:54:22;2.55;;;0.45;;
55720;SDS011;41626;53.098;6.168;2022-07-23T06:56:48;0.70;;;0.32;;
55720;SDS011;41626;53.098;6.168;2022-07-23T06:59:13;2.28;;;0.65;;
55720;SDS011;41626;53.098;6.168;2022-07-23T07:01:39;2.88;;;0.70;;
55720;SDS011;41626;53.098;6.168;2022-07-23T07:04:05;1.80;;;0.70;;
55720;SDS011;41626;53.098;6.168;2022-07-23T07:06:30;0.65;;;0.38;;
55720;SDS011;41626;53.098;6.168;2022-07-23T07:08:56;2.97;;;0.40;;
55720;SDS011;41626;53.098;6.168;2022-07-23T07:11:22;1.35;;;0.30;;
55720;SDS011;41626;53.098;6.168;2022-07-23T07:13:49;0.65;;;0.47;;
55720;SDS011;41626;53.098;6.168;2022-07-23T07:16:14;1.50;;;0.32;;
55720;SDS011;41626;53.098;6.168;2022-07-23T07:18:40;1.73;;;0.30;;
55720;SDS011;41626;53.098;6.168;2022-07-23T07:21:06;0.60;;;0.38;;
55720;SDS011;41626;53.098;6.168;2022-07-23T07:23:31;2.85;;;0.43;;
55720;SDS011;41626;53.098;6.168;2022-07-23T07:25:57;0.55;;;0.20;;
55720;SDS011;41626;53.098;6.168;2022-07-23T07:28:22;1.08;;;0.30;;
55720;SDS011;41626;53.098;6.168;2022-07-23T07:30:48;1.40;;;0.30;;
55720;SDS011;41626;53.098;6.168;2022-07-23T07:33:14;2.50;;;0.30;;
55720;SDS011;41626;53.098;6.168;2022-07-23T07:35:39;2.13;;;0.30;;
55720;SDS011;41626;53.098;6.168;2022-07-23T07:38:05;15.23;;;0.90;;
55720;SDS011;41626;53.098;6.168;2022-07-23T07:40:31;0.82;;;0.20;;
55720;SDS011;41626;53.098;6.168;2022-07-23T07:42:56;0.88;;;0.20;;
55720;SDS011;41626;53.098;6.168;2022-07-23T07:45:22;0.98;;;0.28;;
55720;SDS011;41626;53.098;6.168;2022-07-23T07:47:49;0.63;;;0.13;;
55720;SDS011;41626;53.098;6.168;2022-07-23T07:50:15;0.80;;;0.45;;
55720;SDS011;41626;53.098;6.168;2022-07-23T07:52:41;0.22;;;0.20;;
55720;SDS011;41626;53.098;6.168;2022-07-23T07:55:08;1.02;;;0.80;;
55720;SDS011;41626;53.098;6.168;2022-07-23T07:57:36;1.60;;;0.43;;
55720;SDS011;41626;53.098;6.168;2022-07-23T08:00:03;1.58;;;0.80;;
55720;SDS011;41626;53.098;6.168;2022-07-23T08:02:38;1.88;;;0.20;;
55720;SDS011;41626;53.098;6.168;2022-07-23T08:05:14;0.93;;;0.20;;
55720;SDS011;41626;53.098;6.168;2022-07-23T08:07:45;1.50;;;0.30;;
55720;SDS011;41626;53.098;6.168;2022-07-23T08:10:10;0.80;;;0.20;;
55720;SDS011;41626;53.098;6.168;2022-07-23T08:12:40;1.83;;;0.43;;
55720;SDS011;41626;53.098;6.168;2022-07-23T08:17:32;2.35;;;0.35;;
55720;SDS011;41626;53.098;6.168;2022-07-23T08:19:58;1.85;;;0.20;;
55720;SDS011;41626;53.098;6.168;2022-07-23T08:22:24;0.90;;;0.25;;
55720;SDS011;41626;53.098;6.168;2022-07-23T08:24:49;0.47;;;0.30;;
55720;SDS011;41626;53.098;6.168;2022-07-23T08:27:15;2.13;;;0.45;;
55720;SDS011;41626;53.098;6.168;2022-07-23T08:29:40;1.17;;;0.20;;
55720;SDS011;41626;53.098;6.168;2022-07-23T08:32:06;5.15;;;0.90;;
55720;SDS011;41626;53.098;6.168;2022-07-23T08:34:32;0.55;;;0.30;;
55720;SDS011;41626;53.098;6.168;2022-07-23T08:36:57;1.20;;;0.30;;
55720;SDS011;41626;53.098;6.168;2022-07-23T08:39:23;1.10;;;0.38;;
55720;SDS011;41626;53.098;6.168;2022-07-23T08:41:49;1.30;;;0.45;;
55720;SDS011;41626;53.098;6.168;2022-07-23T08:44:15;0.88;;;0.40;;
55720;SDS011;41626;53.098;6.168;2022-07-23T08:46:42;0.30;;;0.30;;
55720;SDS011;41626;53.098;6.168;2022-07-23T08:49:09;2.97;;;0.55;;
55720;SDS011;41626;53.098;6.168;2022-07-23T08:51:35;0.88;;;0.40;;
55720;SDS011;41626;53.098;6.168;2022-07-23T08:54:01;1.73;;;0.85;;
55720;SDS011;41626;53.098;6.168;2022-07-23T08:56:26;1.50;;;0.45;;
55720;SDS011;41626;53.098;6.168;2022-07-23T08:58:55;0.60;;;0.30;;
55720;SDS011;41626;53.098;6.168;2022-07-23T09:01:21;0.40;;;0.28;;
55720;SDS011;41626;53.098;6.168;2022-07-23T09:03:46;1.13;;;0.52;;
55720;SDS011;41626;53.098;6.168;2022-07-23T09:06:12;1.48;;;0.40;;
55720;SDS011;41626;53.098;6.168;2022-07-23T09:08:41;2.33;;;0.50;;
55720;SDS011;41626;53.098;6.168;2022-07-23T09:11:09;2.28;;;0.70;;
55720;SDS011;41626;53.098;6.168;2022-07-23T09:13:40;4.20;;;1.05;;
55720;SDS011;41626;53.098;6.168;2022-07-23T09:18:55;2.15;;;0.45;;
55720;SDS011;41626;53.098;6.168;2022-07-23T09:21:26;0.68;;;0.40;;
55720;SDS011;41626;53.098;6.168;2022-07-23T09:24:00;1.35;;;0.32;;
55720;SDS011;41626;53.098;6.168;2022-07-23T09:31:31;2.03;;;0.30;;
55720;SDS011;41626;53.098;6.168;2022-07-23T09:36:48;2.50;;;0.70;;
55720;SDS011;41626;53.098;6.168;2022-07-23T09:39:15;8.40;;;0.70;;
55720;SDS011;41626;53.098;6.168;2022-07-23T09:41:49;0.30;;;0.20;;
55720;SDS011;41626;53.098;6.168;2022-07-23T09:44:15;3.40;;;0.28;;
55720;SDS011;41626;53.098;6.168;2022-07-23T09:46:46;2.97;;;0.60;;
55720;SDS011;41626;53.098;6.168;2022-07-23T09:49:22;3.45;;;0.80;;
55720;SDS011;41626;53.098;6.168;2022-07-23T09:51:58;1.52;;;0.63;;
55720;SDS011;41626;53.098;6.168;2022-07-23T09:54:36;1.67;;;0.60;;
55720;SDS011;41626;53.098;6.168;2022-07-23T09:57:10;0.55;;;0.52;;
55720;SDS011;41626;53.098;6.168;2022-07-23T09:59:40;6.47;;;1.30;;
55720;SDS011;41626;53.098;6.168;2022-07-23T10:02:07;1.23;;;0.52;;
55720;SDS011;41626;53.098;6.168;2022-07-23T10:04:35;4.38;;;0.73;;
55720;SDS011;41626;53.098;6.168;2022-07-23T10:07:03;4.43;;;1.60;;
55720;SDS011;41626;53.098;6.168;2022-07-23T10:09:31;6.82;;;1.02;;
55720;SDS011;41626;53.098;6.168;2022-07-23T10:11:59;0.82;;;0.43;;
55720;SDS011;41626;53.098;6.168;2022-07-23T10:14:30;2.38;;;0.47;;
55720;SDS011;41626;53.098;6.168;2022-07-23T10:16:58;3.30;;;0.57;;
55720;SDS011;41626;53.098;6.168;2022-07-23T10:19:25;2.70;;;1.15;;
55720;SDS011;41626;53.098;6.168;2022-07-23T10:21:53;3.03;;;0.88;;
55720;SDS011;41626;53.098;6.168;2022-07-23T10:24:38;2.03;;;0.93;;
55720;SDS011;41626;53.098;6.168;2022-07-23T10:38:21;2.30;;;1.58;;
55720;SDS011;41626;53.098;6.168;2022-07-23T10:40:54;3.08;;;0.68;;
55720;SDS011;41626;53.098;6.168;2022-07-23T10:43:24;1.13;;;0.60;;
55720;SDS011;41626;53.098;6.168;2022-07-23T10:45:50;0.68;;;0.57;;
55720;SDS011;41626;53.098;6.168;2022-07-23T10:48:17;3.85;;;0.93;;
55720;SDS011;41626;53.098;6.168;2022-07-23T10:56:16;0.88;;;0.60;;
55720;SDS011;41626;53.098;6.168;2022-07-23T10:59:05;0.75;;;0.75;;
55720;SDS011;41626;53.098;6.168;2022-07-23T11:01:37;1.67;;;0.93;;
55720;SDS011;41626;53.098;6.168;2022-07-23T11:04:04;3.15;;;0.70;;
55720;SDS011;41626;53.098;6.168;2022-07-23T11:09:26;2.28;;;0.93;;
55720;SDS011;41626;53.098;6.168;2022-07-23T11:17:24;3.38;;;0.77;;
55720;SDS011;41626;53.098;6.168;2022-07-23T11:22:37;4.22;;;1.48;;
55720;SDS011;41626;53.098;6.168;2022-07-23T11:25:12;1.98;;;1.20;;
55720;SDS011;41626;53.098;6.168;2022-07-23T11:27:42;1.80;;;1.00;;
55720;SDS011;41626;53.098;6.168;2022-07-23T11:30:10;2.35;;;1.13;;
55720;SDS011;41626;53.098;6.168;2022-07-23T11:35:34;2.60;;;1.02;;
55720;SDS011;41626;53.098;6.168;2022-07-23T11:38:08;1.70;;;0.95;;
55720;SDS011;41626;53.098;6.168;2022-07-23T11:40:46;1.50;;;0.82;;
55720;SDS011;41626;53.098;6.168;2022-07-23T11:43:13;1.73;;;0.68;;
55720;SDS011;41626;53.098;6.168;2022-07-23T11:45:41;2.20;;;1.00;;
55720;SDS011;41626;53.098;6.168;2022-07-23T11:48:14;3.97;;;1.23;;
55720;SDS011;41626;53.098;6.168;2022-07-23T11:50:45;1.23;;;1.13;;
55720;SDS011;41626;53.098;6.168;2022-07-23T11:53:11;3.28;;;1.10;;
55720;SDS011;41626;53.098;6.168;2022-07-23T11:55:37;1.55;;;0.90;;
55720;SDS011;41626;53.098;6.168;2022-07-23T11:58:03;3.83;;;0.95;;
55720;SDS011;41626;53.098;6.168;2022-07-23T12:00:29;1.35;;;0.90;;
55720;SDS011;41626;53.098;6.168;2022-07-23T12:02:56;2.80;;;1.00;;
55720;SDS011;41626;53.098;6.168;2022-07-23T12:05:30;2.78;;;1.00;;
55720;SDS011;41626;53.098;6.168;2022-07-23T12:07:58;1.30;;;0.93;;
55720;SDS011;41626;53.098;6.168;2022-07-23T12:12:53;1.63;;;0.98;;
55720;SDS011;41626;53.098;6.168;2022-07-23T12:15:23;5.85;;;1.48;;
55720;SDS011;41626;53.098;6.168;2022-07-23T12:17:55;3.40;;;2.35;;
55720;SDS011;41626;53.098;6.168;2022-07-23T12:20:24;2.53;;;1.92;;
55720;SDS011;41626;53.098;6.168;2022-07-23T12:22:52;3.38;;;1.67;;
55720;SDS011;41626;53.098;6.168;2022-07-23T12:25:22;2.42;;;0.90;;
55720;SDS011;41626;53.098;6.168;2022-07-23T12:28:00;2.08;;;0.73;;
55720;SDS011;41626;53.098;6.168;2022-07-23T12:30:38;1.20;;;0.95;;
55720;SDS011;41626;53.098;6.168;2022-07-23T12:33:06;3.97;;;0.80;;
55720;SDS011;41626;53.098;6.168;2022-07-23T12:35:38;1.08;;;1.00;;
55720;SDS011;41626;53.098;6.168;2022-07-23T12:38:11;1.80;;;1.17;;
55720;SDS011;41626;53.098;6.168;2022-07-23T12:40:42;2.30;;;1.05;;
55720;SDS011;41626;53.098;6.168;2022-07-23T12:43:11;3.70;;;1.25;;
55720;SDS011;41626;53.098;6.168;2022-07-23T12:45:48;5.30;;;1.55;;
55720;SDS011;41626;53.098;6.168;2022-07-23T12:51:00;3.47;;;1.00;;
55720;SDS011;41626;53.098;6.168;2022-07-23T12:56:10;2.07;;;1.07;;
55720;SDS011;41626;53.098;6.168;2022-07-23T12:58:58;2.88;;;1.00;;
55720;SDS011;41626;53.098;6.168;2022-07-23T13:01:35;2.67;;;0.75;;
55720;SDS011;41626;53.098;6.168;2022-07-23T13:04:06;1.48;;;1.20;;
55720;SDS011;41626;53.098;6.168;2022-07-23T13:06:36;1.65;;;1.25;;
55720;SDS011;41626;53.098;6.168;2022-07-23T13:09:10;1.30;;;1.00;;
55720;SDS011;41626;53.098;6.168;2022-07-23T13:11:40;2.47;;;1.00;;
55720;SDS011;41626;53.098;6.168;2022-07-23T13:14:06;5.53;;;1.00;;
55720;SDS011;41626;53.098;6.168;2022-07-23T13:16:32;1.20;;;1.10;;
55720;SDS011;41626;53.098;6.168;2022-07-23T13:18:59;4.85;;;0.82;;
55720;SDS011;41626;53.098;6.168;2022-07-23T13:21:26;1.75;;;1.00;;
55720;SDS011;41626;53.098;6.168;2022-07-23T13:23:53;1.35;;;0.90;;
55720;SDS011;41626;53.098;6.168;2022-07-23T13:26:19;3.85;;;0.80;;
55720;SDS011;41626;53.098;6.168;2022-07-23T13:28:45;2.05;;;1.05;;
55720;SDS011;41626;53.098;6.168;2022-07-23T13:31:10;1.10;;;0.82;;
55720;SDS011;41626;53.098;6.168;2022-07-23T13:33:36;3.55;;;1.35;;
55720;SDS011;41626;53.098;6.168;2022-07-23T13:36:02;2.83;;;1.10;;
55720;SDS011;41626;53.098;6.168;2022-07-23T13:38:28;1.45;;;0.90;;
55720;SDS011;41626;53.098;6.168;2022-07-23T13:40:54;4.72;;;1.40;;
55720;SDS011;41626;53.098;6.168;2022-07-23T13:43:20;4.30;;;1.58;;
55720;SDS011;41626;53.098;6.168;2022-07-23T13:45:48;2.70;;;1.58;;
55720;SDS011;41626;53.098;6.168;2022-07-23T13:48:15;3.83;;;1.23;;
55720;SDS011;41626;53.098;6.168;2022-07-23T13:50:41;1.98;;;1.45;;
55720;SDS011;41626;53.098;6.168;2022-07-23T13:53:08;3.30;;;1.02;;
55720;SDS011;41626;53.098;6.168;2022-07-23T13:55:37;1.00;;;0.90;;
55720;SDS011;41626;53.098;6.168;2022-07-23T13:58:04;5.15;;;1.40;;
55720;SDS011;41626;53.098;6.168;2022-07-23T14:00:30;3.30;;;1.13;;
55720;SDS011;41626;53.098;6.168;2022-07-23T14:02:58;2.03;;;1.20;;
55720;SDS011;41626;53.098;6.168;2022-07-23T14:05:24;2.65;;;1.02;;
55720;SDS011;41626;53.098;6.168;2022-07-23T14:07:50;4.15;;;1.65;;
55720;SDS011;41626;53.098;6.168;2022-07-23T14:10:17;1.75;;;1.35;;
55720;SDS011;41626;53.098;6.168;2022-07-23T14:12:45;2.50;;;1.05;;
55720;SDS011;41626;53.098;6.168;2022-07-23T14:15:12;3.53;;;3.10;;
55720;SDS011;41626;53.098;6.168;2022-07-23T14:17:39;1.80;;;1.20;;
55720;SDS011;41626;53.098;6.168;2022-07-23T14:22:34;5.90;;;2.17;;
55720;SDS011;41626;53.098;6.168;2022-07-23T14:25:00;2.22;;;1.10;;
55720;SDS011;41626;53.098;6.168;2022-07-23T14:27:26;6.85;;;2.13;;
55720;SDS011;41626;53.098;6.168;2022-07-23T14:29:53;4.35;;;1.40;;
55720;SDS011;41626;53.098;6.168;2022-07-23T14:32:19;2.60;;;1.13;;
55720;SDS011;41626;53.098;6.168;2022-07-23T14:34:45;4.10;;;1.88;;
55720;SDS011;41626;53.098;6.168;2022-07-23T14:37:11;3.88;;;1.70;;
55720;SDS011;41626;53.098;6.168;2022-07-23T14:39:40;1.40;;;1.08;;
55720;SDS011;41626;53.098;6.168;2022-07-23T14:42:07;4.78;;;1.40;;
55720;SDS011;41626;53.098;6.168;2022-07-23T14:44:34;1.27;;;0.75;;
55720;SDS011;41626;53.098;6.168;2022-07-23T14:47:00;3.20;;;1.08;;
55720;SDS011;41626;53.098;6.168;2022-07-23T14:49:26;1.83;;;0.80;;
55720;SDS011;41626;53.098;6.168;2022-07-23T14:51:52;4.70;;;1.00;;
55720;SDS011;41626;53.098;6.168;2022-07-23T14:54:18;0.80;;;0.80;;
55720;SDS011;41626;53.098;6.168;2022-07-23T14:56:45;1.48;;;0.80;;
55720;SDS011;41626;53.098;6.168;2022-07-23T14:59:10;2.60;;;1.50;;
55720;SDS011;41626;53.098;6.168;2022-07-23T15:01:36;1.92;;;1.48;;
55720;SDS011;41626;53.098;6.168;2022-07-23T15:04:03;5.00;;;2.08;;
55720;SDS011;41626;53.098;6.168;2022-07-23T15:06:29;2.35;;;1.10;;
55720;SDS011;41626;53.098;6.168;2022-07-23T15:08:55;2.58;;;0.90;;
55720;SDS011;41626;53.098;6.168;2022-07-23T15:11:21;4.70;;;2.45;;
55720;SDS011;41626;53.098;6.168;2022-07-23T15:13:46;2.83;;;1.33;;
55720;SDS011;41626;53.098;6.168;2022-07-23T15:16:12;4.53;;;1.60;;
55720;SDS011;41626;53.098;6.168;2022-07-23T15:18:38;1.90;;;1.75;;
55720;SDS011;41626;53.098;6.168;2022-07-23T15:21:04;2.42;;;1.00;;
55720;SDS011;41626;53.098;6.168;2022-07-23T15:23:30;5.40;;;1.52;;
55720;SDS011;41626;53.098;6.168;2022-07-23T15:25:56;2.15;;;1.25;;
55720;SDS011;41626;53.098;6.168;2022-07-23T15:28:23;2.33;;;1.15;;
55720;SDS011;41626;53.098;6.168;2022-07-23T15:30:49;3.58;;;1.75;;
55720;SDS011;41626;53.098;6.168;2022-07-23T15:33:16;2.05;;;1.40;;
55720;SDS011;41626;53.098;6.168;2022-07-23T15:35:42;5.03;;;1.42;;
55720;SDS011;41626;53.098;6.168;2022-07-23T15:38:07;1.85;;;1.02;;
55720;SDS011;41626;53.098;6.168;2022-07-23T15:40:33;2.03;;;1.00;;
55720;SDS011;41626;53.098;6.168;2022-07-23T15:42:59;2.80;;;1.30;;